Time;durP1;ratioP1;P1;durP2;ratioP2;P2;SDS_P1;SDS_P2;PMS_P1;PMS_P2;Temp;Humidity;BMP_temperature;BMP_pressure;BME280_temperature;BME280_humidity;BME280_pressure;Samples;Min_cycle;Max_cycle;Signal;HPM_P1;HPM_P2
2023/01/30 00:00:36;;;;;;;;;;;;;;;5.25;100.00;100079.91;5114403;28;19927;-79
2023/01/30 00:03:02;;;;;;;;;;;;;;;5.31;100.00;100064.13;5114958;28;20364;-79
2023/01/30 00:05:29;;;;;;;;;;;;;;;5.41;100.00;100073.41;5114305;28;20418;-79
2023/01/30 00:07:56;;;;;;;;;;;;;;;5.42;100.00;100054.34;5108934;28;19985;-80
2023/01/30 00:10:22;;;;;;;;;;;;;;;5.48;100.00;100055.91;5112534;28;20353;-79
2023/01/30 00:12:51;;;;;;;;;;;;;;;5.29;100.00;100056.41;5109106;28;19969;-80
2023/01/30 00:15:17;;;;;;;;;;;;;;;5.41;100.00;100060.41;5112562;28;19931;-79
2023/01/30 00:17:44;;;;;;;;;;;;;;;5.35;100.00;100068.38;5108739;28;19920;-79
2023/01/30 00:20:11;;;;;;;;;;;;;;;5.39;100.00;100059.59;5113296;28;19931;-79
2023/01/30 00:22:40;;;;;;;;;;;;;;;5.16;100.00;100056.78;5110980;28;19923;-80
2023/01/30 00:25:21;;;;;;;;;;;;;;;5.48;100.00;100055.91;5104910;28;19920;-79
2023/01/30 00:27:47;;;;;;;;;;;;;;;5.49;100.00;100057.63;5102869;28;19923;-80
2023/01/30 00:30:14;;;;;;;;;;;;;;;5.53;100.00;100053.19;5109673;28;19968;-80
2023/01/30 00:32:40;;;;;;;;;;;;;;;5.47;100.00;100056.78;5114325;28;19919;-80
2023/01/30 00:35:07;;;;;;;;;;;;;;;5.42;100.00;100056.94;5111890;28;19919;-80
2023/01/30 00:37:34;;;;;;;;;;;;;;;5.42;100.00;100054.34;5113617;28;19923;-81
2023/01/30 00:40:01;;;;;;;;;;;;;;;5.46;100.00;100050.75;5107761;28;20277;-80
2023/01/30 00:47:59;;;;;;;;;;;;;;;5.43;100.00;100045.63;5097567;28;20349;-80
2023/01/30 00:50:41;;;;;;;;;;;;;;;5.33;100.00;100052.00;5106601;28;19923;-80
2023/01/30 00:53:08;;;;;;;;;;;;;;;5.35;100.00;100050.22;5113813;28;19923;-80
2023/01/30 00:55:35;;;;;;;;;;;;;;;5.51;100.00;100068.81;5108537;28;19927;-80
2023/01/30 00:58:02;;;;;;;;;;;;;;;5.33;100.00;100059.78;5111372;28;19920;-79
2023/01/30 01:00:28;;;;;;;;;;;;;;;5.31;100.00;100048.56;5112731;28;19927;-80
2023/01/30 01:02:55;;;;;;;;;;;;;;;5.20;100.00;100054.03;5112328;28;19919;-80
2023/01/30 01:05:21;;;;;;;;;;;;;;;5.21;100.00;100037.59;5111434;28;20436;-80
2023/01/30 01:07:48;;;;;;;;;;;;;;;5.18;100.00;100045.47;5112477;28;19919;-80
2023/01/30 01:10:15;;;;;;;;;;;;;;;5.14;100.00;100047.28;5110611;28;19923;-81
2023/01/30 01:12:43;;;;;;;;;;;;;;;5.21;100.00;100052.31;5110798;28;20403;-80
2023/01/30 01:15:11;;;;;;;;;;;;;;;5.17;100.00;100051.56;5112617;28;19919;-80
2023/01/30 01:17:38;;;;;;;;;;;;;;;5.29;100.00;100050.34;5110589;28;19927;-80
2023/01/30 01:20:05;;;;;;;;;;;;;;;5.13;100.00;100060.28;5109230;28;19930;-80
2023/01/30 01:22:31;;;;;;;;;;;;;;;5.11;100.00;100046.50;5108400;28;20426;-80
2023/01/30 01:24:58;;;;;;;;;;;;;;;5.01;100.00;100058.00;5111144;28;19920;-80
2023/01/30 01:27:24;;;;;;;;;;;;;;;5.13;100.00;100043.00;5113517;28;20385;-80
2023/01/30 01:29:51;;;;;;;;;;;;;;;5.19;100.00;100054.09;5106180;28;19927;-81
2023/01/30 01:32:19;;;;;;;;;;;;;;;5.20;100.00;100058.41;5112371;28;19927;-80
2023/01/30 01:34:45;;;;;;;;;;;;;;;5.05;100.00;100047.53;5112299;28;19919;-80
2023/01/30 01:37:12;;;;;;;;;;;;;;;5.06;100.00;100038.84;5112685;28;19931;-80
2023/01/30 01:42:25;;;;;;;;;;;;;;;5.12;100.00;100046.47;5112970;27;20353;-81
2023/01/30 01:45:15;;;;;;;;;;;;;;;5.00;100.00;100031.22;5111496;28;19934;-80
2023/01/30 01:47:45;;;;;;;;;;;;;;;5.12;100.00;100024.88;5100521;28;19959;-81
2023/01/30 01:50:18;;;;;;;;;;;;;;;5.21;100.00;100021.19;5111747;28;19920;-81
2023/01/30 01:52:47;;;;;;;;;;;;;;;5.19;100.00;100018.63;5097106;28;20408;-81
2023/01/30 01:55:17;;;;;;;;;;;;;;;5.21;100.00;100027.22;5096890;28;20016;-81
2023/01/30 01:57:48;;;;;;;;;;;;;;;5.25;100.00;100018.44;5108630;28;20407;-81
2023/01/30 02:00:17;;;;;;;;;;;;;;;5.25;100.00;100013.25;5108666;28;20368;-81
2023/01/30 02:02:56;;;;;;;;;;;;;;;5.24;100.00;99997.72;5109025;28;19920;-81
2023/01/30 02:05:24;;;;;;;;;;;;;;;5.23;100.00;100009.00;5110282;28;19957;-81
2023/01/30 02:07:51;;;;;;;;;;;;;;;5.18;100.00;100010.88;5106553;28;19935;-81
2023/01/30 02:10:31;;;;;;;;;;;;;;;5.19;100.00;100007.38;5101753;28;19938;-81
2023/01/30 02:12:57;;;;;;;;;;;;;;;5.30;100.00;100007.94;5112598;28;19920;-81
2023/01/30 02:15:24;;;;;;;;;;;;;;;5.34;100.00;100001.75;5112282;28;19924;-81
2023/01/30 02:17:50;;;;;;;;;;;;;;;5.37;100.00;99995.66;5111255;28;20006;-80
2023/01/30 02:20:26;;;;;;;;;;;;;;;5.46;100.00;99990.19;5110126;28;20414;-80
2023/01/30 02:23:09;;;;;;;;;;;;;;;5.32;100.00;99994.00;5110740;28;20270;-81
2023/01/30 02:25:45;;;;;;;;;;;;;;;5.54;100.00;99996.00;5103138;28;19923;-80
2023/01/30 02:28:30;;;;;;;;;;;;;;;5.68;100.00;100008.59;5110904;28;19973;-80
2023/01/30 02:31:03;;;;;;;;;;;;;;;5.87;100.00;100011.50;5106862;28;20372;-81
2023/01/30 02:33:48;;;;;;;;;;;;;;;5.60;100.00;100006.22;5110725;28;19945;-80
2023/01/30 02:36:27;;;;;;;;;;;;;;;5.63;100.00;100000.94;5110889;28;20008;-79
2023/01/30 02:38:57;;;;;;;;;;;;;;;5.81;100.00;100015.16;5110056;28;19919;-80
2023/01/30 02:41:31;;;;;;;;;;;;;;;5.87;100.00;100012.34;5110793;28;19926;-80
2023/01/30 02:44:05;;;;;;;;;;;;;;;5.74;100.00;100020.53;5112042;28;19924;-80
2023/01/30 02:46:36;;;;;;;;;;;;;;;5.76;100.00;100048.19;5112977;28;19919;-80
2023/01/30 02:49:15;;;;;;;;;;;;;;;5.56;100.00;100053.09;5113351;28;20292;-80
2023/01/30 02:51:43;;;;;;;;;;;;;;;5.91;100.00;100080.66;5110705;28;19923;-80
2023/01/30 02:54:11;;;;;;;;;;;;;;;5.73;100.00;100082.03;5114236;28;19920;-80
2023/01/30 02:56:49;;;;;;;;;;;;;;;5.87;100.00;100081.66;5115515;28;19920;-81
2023/01/30 02:59:18;;;;;;;;;;;;;;;5.74;100.00;100104.53;5113763;28;19924;-80
2023/01/30 03:01:54;;;;;;;;;;;;;;;5.64;100.00;100129.91;5104589;28;19919;-81
2023/01/30 03:04:28;;;;;;;;;;;;;;;5.41;100.00;100125.31;5113860;28;20320;-81
2023/01/30 03:07:21;;;;;;;;;;;;;;;5.61;100.00;100119.63;5115434;28;19927;-81
2023/01/30 03:10:00;;;;;;;;;;;;;;;5.56;100.00;100131.88;5097371;28;19919;-81
2023/01/30 03:12:27;;;;;;;;;;;;;;;5.53;100.00;100144.94;5114938;28;19965;-81
2023/01/30 03:15:16;;;;;;;;;;;;;;;5.49;100.00;100161.50;5109833;28;19920;-81
2023/01/30 03:17:45;;;;;;;;;;;;;;;5.30;100.00;100143.78;5110336;28;20429;-81
2023/01/30 03:20:14;;;;;;;;;;;;;;;5.49;100.00;100161.50;5111320;28;19966;-81
2023/01/30 03:22:40;;;;;;;;;;;;;;;5.39;100.00;100170.41;5114550;28;19927;-81
2023/01/30 03:25:07;;;;;;;;;;;;;;;5.33;100.00;100185.25;5114601;27;19930;-81
2023/01/30 03:27:34;;;;;;;;;;;;;;;5.44;100.00;100176.34;5115062;28;19927;-80
2023/01/30 03:30:01;;;;;;;;;;;;;;;5.57;100.00;100169.06;5105379;28;19919;-81
2023/01/30 03:32:27;;;;;;;;;;;;;;;5.44;100.00;100179.78;5113583;28;19923;-81
2023/01/30 03:34:54;;;;;;;;;;;;;;;5.65;100.00;100185.31;5109761;28;20364;-81
2023/01/30 03:37:20;;;;;;;;;;;;;;;5.56;100.00;100201.13;5114746;28;19919;-80
2023/01/30 03:39:47;;;;;;;;;;;;;;;5.67;100.00;100179.19;5113978;28;20533;-81
2023/01/30 03:42:14;;;;;;;;;;;;;;;5.74;100.00;100190.25;5113945;28;20327;-81
2023/01/30 03:44:40;;;;;;;;;;;;;;;5.86;100.00;100205.53;5113763;28;19964;-81
2023/01/30 03:47:07;;;;;;;;;;;;;;;5.74;100.00;100210.16;5115909;27;19927;-81
2023/01/30 03:49:34;;;;;;;;;;;;;;;5.76;100.00;100222.25;5101796;28;19920;-80
2023/01/30 03:52:00;;;;;;;;;;;;;;;5.77;100.00;100229.16;5113044;28;19924;-81
2023/01/30 03:54:27;;;;;;;;;;;;;;;5.78;100.00;100217.00;5113442;28;19920;-81
2023/01/30 03:56:54;;;;;;;;;;;;;;;5.91;100.00;100223.56;5114617;28;19920;-81
2023/01/30 03:59:20;;;;;;;;;;;;;;;5.72;100.00;100238.81;5098346;28;20636;-80
2023/01/30 04:01:47;;;;;;;;;;;;;;;5.75;100.00;100227.47;5114203;28;19920;-81
2023/01/30 04:04:13;;;;;;;;;;;;;;;5.74;100.00;100233.56;5114199;28;20325;-80
2023/01/30 04:06:40;;;;;;;;;;;;;;;5.67;100.00;100249.31;5113494;28;19969;-81
2023/01/30 04:09:07;;;;;;;;;;;;;;;5.68;100.00;100248.44;5113353;28;19920;-81
2023/01/30 04:11:33;;;;;;;;;;;;;;;5.77;100.00;100252.53;5113231;28;19927;-81
2023/01/30 04:14:00;;;;;;;;;;;;;;;5.67;100.00;100244.13;5113885;28;20341;-81
2023/01/30 04:16:26;;;;;;;;;;;;;;;5.66;100.00;100251.94;5113471;28;19927;-81
2023/01/30 04:18:53;;;;;;;;;;;;;;;5.72;100.00;100280.38;5110095;28;19959;-81
2023/01/30 04:21:20;;;;;;;;;;;;;;;5.67;100.00;100266.66;5114602;28;19919;-81
2023/01/30 04:23:47;;;;;;;;;;;;;;;5.58;100.00;100279.84;5114324;28;19927;-82
2023/01/30 04:26:14;;;;;;;;;;;;;;;5.76;100.00;100288.94;5105616;28;19971;-80
2023/01/30 04:28:41;;;;;;;;;;;;;;;5.60;100.00;100286.72;5111287;28;19923;-80
2023/01/30 04:31:08;;;;;;;;;;;;;;;5.72;100.00;100290.75;5104657;28;19924;-81
2023/01/30 04:33:35;;;;;;;;;;;;;;;5.68;100.00;100294.31;5111476;28;20489;-81
2023/01/30 04:36:03;;;;;;;;;;;;;;;5.51;100.00;100298.19;5103757;28;19924;-80
2023/01/30 04:38:30;;;;;;;;;;;;;;;5.54;100.00;100305.03;5108257;28;19985;-80
2023/01/30 04:40:57;;;;;;;;;;;;;;;5.59;100.00;100305.78;5114354;28;19920;-80
2023/01/30 04:43:25;;;;;;;;;;;;;;;5.53;100.00;100305.94;5114196;28;19924;-80
2023/01/30 04:45:52;;;;;;;;;;;;;;;5.57;100.00;100307.56;5113278;28;20325;-81
2023/01/30 04:48:19;;;;;;;;;;;;;;;5.72;100.00;100314.16;5105495;28;19966;-80
2023/01/30 04:50:47;;;;;;;;;;;;;;;5.65;100.00;100333.38;5111486;28;19920;-81
2023/01/30 04:53:14;;;;;;;;;;;;;;;5.49;100.00;100330.28;5112863;28;19927;-81
2023/01/30 04:55:40;;;;;;;;;;;;;;;5.64;100.00;100345.47;5112691;28;19969;-80
2023/01/30 04:58:07;;;;;;;;;;;;;;;5.67;100.00;100353.22;5112834;28;19919;-81
2023/01/30 05:00:33;;;;;;;;;;;;;;;5.55;100.00;100363.03;5112057;28;19920;-81
2023/01/30 05:03:00;;;;;;;;;;;;;;;5.60;100.00;100374.19;5113554;28;21558;-81
2023/01/30 05:05:27;;;;;;;;;;;;;;;5.49;100.00;100366.63;5112415;28;19920;-80
2023/01/30 05:07:53;;;;;;;;;;;;;;;5.62;100.00;100372.41;5110710;28;19924;-80
2023/01/30 05:10:20;;;;;;;;;;;;;;;5.61;100.00;100371.53;5113622;28;19923;-80
2023/01/30 05:12:47;;;;;;;;;;;;;;;5.49;100.00;100362.28;5113553;28;21074;-81
2023/01/30 05:15:14;;;;;;;;;;;;;;;5.62;100.00;100378.44;5104126;28;19932;-81
2023/01/30 05:17:40;;;;;;;;;;;;;;;5.43;100.00;100388.38;5112092;28;20467;-81
2023/01/30 05:20:11;;;;;;;;;;;;;;;5.45;100.00;100398.72;5107003;28;19924;-80
2023/01/30 05:22:38;;;;;;;;;;;;;;;5.41;100.00;100399.69;5106615;28;19926;-81
2023/01/30 05:25:05;;;;;;;;;;;;;;;5.60;100.00;100407.94;5103656;28;20262;-80
2023/01/30 05:27:31;;;;;;;;;;;;;;;5.56;100.00;100414.94;5113768;28;19968;-81
2023/01/30 05:29:58;;;;;;;;;;;;;;;5.66;100.00;100420.78;5109184;28;19988;-81
2023/01/30 05:32:26;;;;;;;;;;;;;;;5.41;100.00;100444.69;5112679;28;19919;-80
2023/01/30 05:34:52;;;;;;;;;;;;;;;5.73;100.00;100447.47;5111740;28;19931;-80
2023/01/30 05:37:19;;;;;;;;;;;;;;;5.68;100.00;100448.44;5113326;28;19926;-81
2023/01/30 05:39:45;;;;;;;;;;;;;;;5.51;100.00;100454.00;5105588;28;19919;-80
2023/01/30 05:42:13;;;;;;;;;;;;;;;5.64;100.00;100453.72;5112694;28;19920;-81
2023/01/30 05:44:39;;;;;;;;;;;;;;;5.49;100.00;100471.34;5111858;28;19969;-80
2023/01/30 05:47:06;;;;;;;;;;;;;;;5.54;100.00;100476.44;5112439;28;19985;-81
2023/01/30 05:49:32;;;;;;;;;;;;;;;5.52;100.00;100486.00;5106047;28;20328;-80
2023/01/30 05:51:59;;;;;;;;;;;;;;;5.60;100.00;100478.06;5112825;28;20254;-82
2023/01/30 05:54:25;;;;;;;;;;;;;;;5.53;100.00;100494.66;5100333;28;19920;-80
2023/01/30 05:56:52;;;;;;;;;;;;;;;5.46;100.00;100499.13;5112005;28;20253;-81
2023/01/30 05:59:19;;;;;;;;;;;;;;;5.39;100.00;100513.13;5103152;28;19920;-81
2023/01/30 06:01:45;;;;;;;;;;;;;;;5.32;100.00;100513.22;5113481;28;19919;-81
2023/01/30 06:04:12;;;;;;;;;;;;;;;5.46;100.00;100514.69;5109107;28;19919;-81
2023/01/30 06:06:38;;;;;;;;;;;;;;;5.40;100.00;100517.41;5112095;28;20284;-81
2023/01/30 06:09:05;;;;;;;;;;;;;;;5.46;100.00;100538.91;5109393;28;19920;-81
2023/01/30 06:11:32;;;;;;;;;;;;;;;5.41;100.00;100532.09;5112131;28;20311;-81
2023/01/30 06:13:58;;;;;;;;;;;;;;;5.32;100.00;100544.38;5112611;28;20422;-81
2023/01/30 06:16:25;;;;;;;;;;;;;;;5.34;100.00;100562.53;5112846;28;19919;-81
2023/01/30 06:18:51;;;;;;;;;;;;;;;5.56;100.00;100555.19;5107021;28;20615;-82
2023/01/30 06:21:18;;;;;;;;;;;;;;;5.57;100.00;100556.88;5110691;28;19920;-82
2023/01/30 06:23:45;;;;;;;;;;;;;;;5.46;100.00;100559.69;5100244;28;19920;-82
2023/01/30 06:26:12;;;;;;;;;;;;;;;5.63;100.00;100592.25;5100766;28;19920;-82
2023/01/30 06:28:38;;;;;;;;;;;;;;;5.53;100.00;100590.75;5108737;28;19927;-81
2023/01/30 06:31:06;;;;;;;;;;;;;;;5.59;100.00;100593.22;5097415;28;19927;-82
2023/01/30 06:33:33;;;;;;;;;;;;;;;5.67;100.00;100605.19;5111566;28;19932;-81
2023/01/30 06:36:00;;;;;;;;;;;;;;;5.57;100.00;100603.63;5096137;28;19927;-82
2023/01/30 06:38:26;;;;;;;;;;;;;;;5.60;100.00;100618.31;5101087;28;19920;-81
2023/01/30 06:40:53;;;;;;;;;;;;;;;5.65;100.00;100622.53;5101422;28;19977;-81
2023/01/30 06:43:20;;;;;;;;;;;;;;;5.78;100.00;100630.94;5098520;28;19924;-81
2023/01/30 06:45:46;;;;;;;;;;;;;;;5.88;100.00;100629.03;5101399;28;19919;-81
2023/01/30 06:48:13;;;;;;;;;;;;;;;5.76;100.00;100635.31;5105413;28;19968;-81
2023/01/30 06:50:40;;;;;;;;;;;;;;;5.75;100.00;100649.19;5098940;28;19920;-81
2023/01/30 06:53:07;;;;;;;;;;;;;;;5.75;100.00;100654.38;5104473;28;19931;-80
2023/01/30 06:55:34;;;;;;;;;;;;;;;5.79;100.00;100660.38;5108294;28;19927;-82
2023/01/30 06:58:11;;;;;;;;;;;;;;;5.81;100.00;100666.41;5103383;28;19920;-82
2023/01/30 07:00:38;;;;;;;;;;;;;;;5.84;100.00;100687.13;5104111;28;20515;-81
2023/01/30 07:03:09;;;;;;;;;;;;;;;5.87;100.00;100695.72;5094537;28;19928;-81
2023/01/30 07:05:37;;;;;;;;;;;;;;;5.78;100.00;100706.28;5093868;28;19920;-81
2023/01/30 07:08:03;;;;;;;;;;;;;;;5.90;100.00;100707.81;5098933;28;19924;-81
2023/01/30 07:10:31;;;;;;;;;;;;;;;5.75;100.00;100719.31;5104014;28;19920;-81
2023/01/30 07:12:58;;;;;;;;;;;;;;;5.85;100.00;100731.28;5097939;28;19926;-81
2023/01/30 07:15:25;;;;;;;;;;;;;;;5.72;100.00;100719.41;5102516;28;19919;-80
2023/01/30 07:17:51;;;;;;;;;;;;;;;5.79;100.00;100738.31;5099418;28;19969;-80
2023/01/30 07:20:18;;;;;;;;;;;;;;;5.84;100.00;100742.56;5104952;28;19973;-80
2023/01/30 07:22:49;;;;;;;;;;;;;;;5.75;100.00;100754.84;5099764;28;19919;-80
2023/01/30 07:25:16;;;;;;;;;;;;;;;5.79;100.00;100743.50;5100173;28;19920;-80
2023/01/30 07:27:48;;;;;;;;;;;;;;;5.77;100.00;100761.75;5110736;28;19995;-81
2023/01/30 07:30:15;;;;;;;;;;;;;;;5.72;100.00;100763.56;5100696;28;19924;-80
2023/01/30 07:32:42;;;;;;;;;;;;;;;5.92;100.00;100772.75;5103526;28;20546;-81
2023/01/30 07:35:08;;;;;;;;;;;;;;;5.83;100.00;100773.78;5102380;28;19927;-80
2023/01/30 07:37:35;;;;;;;;;;;;;;;5.80;100.00;100773.81;5108556;28;19919;-81
2023/01/30 07:40:02;;;;;;;;;;;;;;;5.79;100.00;100772.09;5099757;28;19920;-81
2023/01/30 07:42:28;;;;;;;;;;;;;;;5.78;100.00;100788.59;5113562;28;19969;-81
2023/01/30 07:44:55;;;;;;;;;;;;;;;5.61;100.00;100799.25;5114929;28;19923;-81
2023/01/30 07:47:22;;;;;;;;;;;;;;;5.80;100.00;100799.81;5099698;28;20285;-81
2023/01/30 07:49:48;;;;;;;;;;;;;;;5.67;100.00;100800.00;5104846;28;19920;-81
2023/01/30 07:52:15;;;;;;;;;;;;;;;5.58;100.00;100809.66;5110809;28;20356;-80
2023/01/30 07:54:42;;;;;;;;;;;;;;;5.59;100.00;100804.47;5115024;28;19923;-80
2023/01/30 07:57:08;;;;;;;;;;;;;;;5.46;100.00;100811.59;5112695;28;19920;-81
2023/01/30 07:59:35;;;;;;;;;;;;;;;5.57;100.00;100823.56;5097232;28;20284;-80
2023/01/30 08:02:02;;;;;;;;;;;;;;;5.61;100.00;100828.69;5115278;28;19973;-80
2023/01/30 08:04:28;;;;;;;;;;;;;;;5.48;100.00;100824.56;5115181;28;19935;-80
2023/01/30 08:06:55;;;;;;;;;;;;;;;5.34;100.00;100837.75;5114337;28;19919;-81
2023/01/30 08:09:22;;;;;;;;;;;;;;;5.39;100.00;100829.88;5110639;28;19927;-81
2023/01/30 08:11:48;;;;;;;;;;;;;;;5.42;100.00;100840.22;5114656;28;19919;-81
2023/01/30 08:14:15;;;;;;;;;;;;;;;5.35;100.00;100839.47;5115590;28;20260;-81
2023/01/30 08:16:42;;;;;;;;;;;;;;;5.41;100.00;100847.16;5113753;28;20383;-80
2023/01/30 08:19:08;;;;;;;;;;;;;;;5.54;100.00;100842.63;5113154;28;19920;-80
2023/01/30 08:21:35;;;;;;;;;;;;;;;5.42;100.00;100859.28;5113538;28;20234;-80
2023/01/30 08:24:02;;;;;;;;;;;;;;;5.54;100.00;100842.63;5114059;28;19920;-80
2023/01/30 08:26:28;;;;;;;;;;;;;;;5.31;100.00;100867.22;5108702;28;19926;-81
2023/01/30 08:28:55;;;;;;;;;;;;;;;5.23;100.00;100874.22;5112183;28;19919;-80
2023/01/30 08:31:22;;;;;;;;;;;;;;;5.44;100.00;100865.28;5114060;28;19919;-81
2023/01/30 08:33:48;;;;;;;;;;;;;;;5.57;100.00;100871.16;5113376;28;19920;-81
2023/01/30 08:36:15;;;;;;;;;;;;;;;5.43;100.00;100878.28;5114686;28;19920;-80
2023/01/30 08:38:41;;;;;;;;;;;;;;;5.49;100.00;100892.06;5112233;28;19920;-81
2023/01/30 08:41:08;;;;;;;;;;;;;;;5.40;100.00;100891.31;5114278;28;19920;-81
2023/01/30 08:43:35;;;;;;;;;;;;;;;5.33;100.00;100904.41;5111794;28;19920;-81
2023/01/30 08:46:02;;;;;;;;;;;;;;;5.47;100.00;100912.00;5113888;28;19920;-82
2023/01/30 08:48:29;;;;;;;;;;;;;;;5.64;100.00;100897.91;5107113;28;19926;-82
2023/01/30 08:51:12;;;;;;;;;;;;;;;5.79;100.00;100892.50;5114409;28;19927;-82
2023/01/30 08:53:39;;;;;;;;;;;;;;;5.89;100.00;100908.78;5114421;28;19981;-81
2023/01/30 08:56:06;;;;;;;;;;;;;;;5.92;100.00;100911.34;5113969;27;19919;-80
2023/01/30 08:58:32;;;;;;;;;;;;;;;6.16;100.00;100920.53;5105913;28;19920;-81
2023/01/30 09:01:03;;;;;;;;;;;;;;;6.35;100.00;100925.41;5108693;28;19927;-81
2023/01/30 09:03:30;;;;;;;;;;;;;;;6.34;100.00;100927.16;5107360;28;19943;-81
2023/01/30 09:05:56;;;;;;;;;;;;;;;6.34;100.00;100934.97;5106596;28;19920;-81
2023/01/30 09:08:23;;;;;;;;;;;;;;;6.54;100.00;100938.97;5110379;28;19972;-82
2023/01/30 09:10:49;;;;;;;;;;;;;;;6.35;100.00;100938.44;5113034;28;19923;-81
2023/01/30 09:13:16;;;;;;;;;;;;;;;6.23;100.00;100947.28;5114130;28;19920;-81
2023/01/30 09:15:44;;;;;;;;;;;;;;;6.35;100.00;100946.22;5113081;28;19923;-81
2023/01/30 09:18:12;;;;;;;;;;;;;;;5.98;100.00;100950.25;5108179;28;19919;-81
2023/01/30 09:20:38;;;;;;;;;;;;;;;5.95;100.00;100954.59;5114326;28;19920;-81
2023/01/30 09:23:05;;;;;;;;;;;;;;;5.96;100.00;100967.63;5114269;28;20431;-81
2023/01/30 09:25:32;;;;;;;;;;;;;;;5.82;100.00;100960.00;5098788;28;19927;-81
2023/01/30 09:27:58;;;;;;;;;;;;;;;5.83;100.00;100979.06;5108630;28;19928;-81
2023/01/30 09:30:25;;;;;;;;;;;;;;;5.86;100.00;100977.28;5112139;28;19923;-81
2023/01/30 09:32:52;;;;;;;;;;;;;;;5.86;100.00;100981.59;5113487;28;19926;-80
2023/01/30 09:35:18;;;;;;;;;;;;;;;5.72;100.00;100979.22;5112751;28;19988;-81
2023/01/30 09:37:46;;;;;;;;;;;;;;;5.90;100.00;100989.34;5111027;28;19919;-81
2023/01/30 09:40:17;;;;;;;;;;;;;;;6.03;100.00;101003.03;5107464;28;19920;-82
2023/01/30 09:43:03;;;;;;;;;;;;;;;5.93;100.00;100991.00;5112808;28;19959;-82
2023/01/30 09:45:38;;;;;;;;;;;;;;;5.96;100.00;100983.22;5113753;28;20318;-82
2023/01/30 09:48:14;;;;;;;;;;;;;;;5.99;100.00;101003.97;5096900;28;19920;-82
2023/01/30 09:51:02;;;;;;;;;;;;;;;6.10;100.00;101009.00;5109243;28;19924;-81
2023/01/30 09:53:38;;;;;;;;;;;;;;;5.96;100.00;101032.59;5105758;28;19932;-81
2023/01/30 09:56:05;;;;;;;;;;;;;;;6.23;100.00;101023.56;5112330;28;19919;-82
2023/01/30 09:58:41;;;;;;;;;;;;;;;6.31;100.00;101027.78;5104408;28;19923;-82
2023/01/30 10:01:14;;;;;;;;;;;;;;;6.25;100.00;101033.91;5100208;28;19920;-81
2023/01/30 10:03:51;;;;;;;;;;;;;;;6.20;100.00;101035.75;5111586;28;19919;-81
2023/01/30 10:06:19;;;;;;;;;;;;;;;6.40;100.00;101044.09;5113243;28;19920;-81
2023/01/30 10:08:52;;;;;;;;;;;;;;;6.23;100.00;101013.16;5111601;28;19919;-82
2023/01/30 10:11:46;;;;;;;;;;;;;;;6.65;100.00;101038.50;5112753;28;19920;-82
2023/01/30 10:14:19;;;;;;;;;;;;;;;6.59;100.00;101033.41;5087858;28;19920;-82
2023/01/30 10:17:21;;;;;;;;;;;;;;;6.62;100.00;101041.16;5110908;28;19969;-82
2023/01/30 10:19:54;;;;;;;;;;;;;;;6.76;100.00;101040.94;5055072;28;19943;-82
2023/01/30 10:22:20;;;;;;;;;;;;;;;6.59;100.00;101056.84;5101740;28;19920;-82
2023/01/30 10:25:05;;;;;;;;;;;;;;;6.71;100.00;101051.44;5106422;28;20384;-83
2023/01/30 10:27:33;;;;;;;;;;;;;;;6.61;100.00;101058.50;5092144;28;20002;-82
2023/01/30 10:30:03;;;;;;;;;;;;;;;6.67;100.00;101064.50;5111915;28;19920;-82
2023/01/30 10:32:32;;;;;;;;;;;;;;;6.78;100.00;101066.06;5100155;28;19924;-82
2023/01/30 10:35:04;;;;;;;;;;;;;;;6.74;100.00;101073.94;5098920;28;19927;-82
2023/01/30 10:37:34;;;;;;;;;;;;;;;6.75;100.00;101070.47;5098464;28;19920;-82
2023/01/30 10:40:01;;;;;;;;;;;;;;;6.83;100.00;101077.25;5110809;28;19930;-82
2023/01/30 10:42:27;;;;;;;;;;;;;;;7.03;100.00;101084.72;5111634;28;19924;-82
2023/01/30 10:44:59;;;;;;;;;;;;;;;6.86;100.00;101091.09;5112337;28;19985;-82
2023/01/30 10:47:30;;;;;;;;;;;;;;;7.02;100.00;101092.56;5112594;28;19923;-82
2023/01/30 10:50:14;;;;;;;;;;;;;;;6.83;100.00;101116.28;5113267;28;19999;-82
2023/01/30 10:52:56;;;;;;;;;;;;;;;7.17;100.00;101114.84;5112489;28;19931;-82
2023/01/30 10:55:29;;;;;;;;;;;;;;;7.18;100.00;101120.03;5107177;28;19920;-82
2023/01/30 10:58:03;;;;;;;;;;;;;;;7.26;100.00;101119.91;5105700;28;19924;-82
2023/01/30 11:00:32;;;;;;;;;;;;;;;7.11;100.00;101112.38;5101528;28;19946;-82
2023/01/30 11:03:11;;;;;;;;;;;;;;;7.10;100.00;101119.31;5110782;28;19931;-82
2023/01/30 11:05:44;;;;;;;;;;;;;;;7.34;100.00;101133.66;5101877;28;19920;-82
2023/01/30 11:08:40;;;;;;;;;;;;;;;7.48;100.00;101136.00;5109074;28;20300;-82
2023/01/30 11:11:22;;;;;;;;;;;;;;;7.44;100.00;101157.81;5107135;28;20365;-82
2023/01/30 11:13:49;;;;;;;;;;;;;;;7.51;100.00;101156.81;5104904;28;19920;-82
2023/01/30 11:16:15;;;;;;;;;;;;;;;7.75;100.00;101165.91;5115161;28;19941;-82
2023/01/30 11:18:44;;;;;;;;;;;;;;;7.80;100.00;101171.03;5113720;28;19920;-82
2023/01/30 11:21:31;;;;;;;;;;;;;;;7.41;100.00;101171.72;5114799;28;20014;-82
2023/01/30 11:24:17;;;;;;;;;;;;;;;7.66;100.00;101181.72;5114922;28;19951;-82
2023/01/30 11:26:44;;;;;;;;;;;;;;;7.61;100.00;101180.94;5112113;28;19979;-82
2023/01/30 11:29:15;;;;;;;;;;;;;;;7.51;100.00;101185.47;5109939;28;19942;-81
2023/01/30 11:31:47;;;;;;;;;;;;;;;7.68;100.00;101197.31;5114060;28;19927;-82
2023/01/30 11:34:15;;;;;;;;;;;;;;;7.78;100.00;101204.09;5108285;28;20003;-82
2023/01/30 11:36:42;;;;;;;;;;;;;;;7.60;100.00;101200.09;5096282;28;20331;-81
2023/01/30 11:39:12;;;;;;;;;;;;;;;7.93;100.00;101205.53;5107252;28;19920;-82
2023/01/30 11:41:42;;;;;;;;;;;;;;;7.92;100.00;101202.09;5108388;28;20530;-81
2023/01/30 11:44:09;;;;;;;;;;;;;;;7.89;100.00;101203.88;5116301;28;19919;-81
2023/01/30 11:46:38;;;;;;;;;;;;;;;7.98;100.00;101201.09;5114569;28;19919;-81
2023/01/30 11:49:27;;;;;;;;;;;;;;;7.98;100.00;101195.88;5114290;28;19920;-81
2023/01/30 11:52:16;;;;;;;;;;;;;;;7.68;100.00;101200.78;5115895;28;19963;-82
2023/01/30 11:54:44;;;;;;;;;;;;;;;7.93;100.00;101202.94;5110914;28;19927;-81
2023/01/30 11:57:12;;;;;;;;;;;;;;;7.96;100.00;101195.06;5106692;28;19919;-82
2023/01/30 11:59:54;;;;;;;;;;;;;;;7.90;100.00;101205.63;5113489;28;20392;-82
2023/01/30 12:02:24;;;;;;;;;;;;;;;7.72;100.00;101194.66;5114325;28;19920;-81
2023/01/30 12:04:55;;;;;;;;;;;;;;;7.83;100.00;101193.59;5115089;28;19919;-82
2023/01/30 12:07:26;;;;;;;;;;;;;;;7.95;100.00;101193.31;5114293;28;19919;-82
2023/01/30 12:09:53;;;;;;;;;;;;;;;7.71;100.00;101203.34;5112925;28;19919;-81
2023/01/30 12:12:34;;;;;;;;;;;;;;;8.02;100.00;101201.91;5114560;28;19927;-82
2023/01/30 12:15:12;;;;;;;;;;;;;;;8.11;100.00;101204.31;5115046;28;19924;-82
2023/01/30 12:17:43;;;;;;;;;;;;;;;7.94;100.00;101207.28;5113919;28;19923;-82
2023/01/30 12:20:35;;;;;;;;;;;;;;;8.28;100.00;101220.50;5115342;28;19924;-82
2023/01/30 12:23:08;;;;;;;;;;;;;;;8.14;100.00;101225.13;5098567;28;20376;-81
2023/01/30 12:25:42;;;;;;;;;;;;;;;8.18;100.00;101234.63;5101547;28;19924;-82
2023/01/30 12:28:22;;;;;;;;;;;;;;;8.38;100.00;101230.78;5115214;28;19919;-82
2023/01/30 12:30:53;;;;;;;;;;;;;;;8.12;100.00;101239.97;5094228;28;19927;-82
2023/01/30 12:33:20;;;;;;;;;;;;;;;8.19;100.00;101236.34;5109719;28;19920;-82
2023/01/30 12:35:50;;;;;;;;;;;;;;;8.32;100.00;101235.22;5114349;28;19921;-81
2023/01/30 12:38:17;;;;;;;;;;;;;;;8.54;100.00;101245.25;5113153;28;20305;-82
2023/01/30 12:41:04;;;;;;;;;;;;;;;8.50;100.00;101243.59;5113241;28;19923;-81
2023/01/30 12:43:36;;;;;;;;;;;;;;;8.68;100.00;101242.34;5100023;28;19919;-81
2023/01/30 12:46:21;;;;;;;;;;;;;;;8.66;100.00;101244.13;5113006;28;19927;-82
2023/01/30 12:49:21;;;;;;;;;;;;;;;8.66;100.00;101244.13;5104126;28;19920;-82
2023/01/30 12:51:50;;;;;;;;;;;;;;;8.90;100.00;101247.94;5081262;28;19920;-82
2023/01/30 12:54:17;;;;;;;;;;;;;;;8.69;100.00;101242.31;5097819;28;20398;-82
2023/01/30 12:56:48;;;;;;;;;;;;;;;8.71;100.00;101242.25;5104326;28;20357;-81
2023/01/30 12:59:15;;;;;;;;;;;;;;;8.36;100.00;101241.22;5113501;28;19927;-82